Abington, Connecticut
Current Conditions -  °F | °C
As of 4:28 PM on Monday 24 Nov 2014 (Local Time) from KIJD Reporting Station
Overcast Overcast  
Wind Chill: 61°   Ceiling: 800
Heat Index: 61°   Visibility: 8mi
Dew Point: 58°   Wind: 12mph
Humidity: 90%   Direction: 190°S
Pressure: 29.62"   Gusts: 23mph
Location:  41.86°N, 72.01°W
Report Text: KIJD 242128Z AUTO 19010G20KT 8SM OVC008 16/14 A2962 RMK AO2 CIG 006V013 T01610144
Loading
Personal Weather Stations






























Interactive Weather Map New forecast layout! Learn more

10-Day Weather Forecast

Advertisements
Track Severe Weather on mobile